Map

Track Data

SID SEASON NUMBER BASIN SUBBASIN NAME ISO_TIME NATURE LAT LON WMO_WIND WMO_PRES WMO_AGENCY TRACK_TYPE DIST2LAND LANDFALL IFLAG USA_AGENCY USA_ATCF_ID USA_LAT USA_LON USA_RECORD USA_STATUS USA_WIND USA_PRES USA_SSHS USA_R34_NE USA_R34_SE USA_R34_SW USA_R34_NW USA_R50_NE USA_R50_SE USA_R50_SW USA_R50_NW USA_R64_NE USA_R64_SE USA_R64_SW USA_R64_NW USA_POCI USA_ROCI USA_RMW USA_EYE TOKYO_LAT TOKYO_LON TOKYO_GRADE TOKYO_WIND TOKYO_PRES TOKYO_R50_DIR TOKYO_R50_LONG TOKYO_R50_SHORT TOKYO_R30_DIR TOKYO_R30_LONG TOKYO_R30_SHORT TOKYO_LAND CMA_LAT CMA_LON CMA_CAT CMA_WIND CMA_PRES HKO_LAT HKO_LON HKO_CAT HKO_WIND HKO_PRES NEWDELHI_LAT NEWDELHI_LON NEWDELHI_GRADE NEWDELHI_WIND NEWDELHI_PRES NEWDELHI_CI NEWDELHI_DP NEWDELHI_POCI REUNION_LAT REUNION_LON REUNION_TYPE REUNION_WIND REUNION_PRES REUNION_TNUM REUNION_CI REUNION_RMW REUNION_R34_NE REUNION_R34_SE REUNION_R34_SW REUNION_R34_NW REUNION_R50_NE REUNION_R50_SE REUNION_R50_SW REUNION_R50_NW REUNION_R64_NE REUNION_R64_SE REUNION_R64_SW REUNION_R64_NW BOM_LAT BOM_LON BOM_TYPE BOM_WIND BOM_PRES BOM_TNUM BOM_CI BOM_RMW BOM_R34_NE BOM_R34_SE BOM_R34_SW BOM_R34_NW BOM_R50_NE BOM_R50_SE BOM_R50_SW BOM_R50_NW BOM_R64_NE BOM_R64_SE BOM_R64_SW BOM_R64_NW BOM_ROCI BOM_POCI BOM_EYE BOM_POS_METHOD BOM_PRES_METHOD NADI_LAT NADI_LON NADI_CAT NADI_WIND NADI_PRES WELLINGTON_LAT WELLINGTON_LON WELLINGTON_WIND WELLINGTON_PRES DS824_LAT DS824_LON DS824_STAGE DS824_WIND DS824_PRES TD9636_LAT TD9636_LON TD9636_STAGE TD9636_WIND TD9636_PRES TD9635_LAT TD9635_LON TD9635_WIND TD9635_PRES TD9635_ROCI NEUMANN_LAT NEUMANN_LON NEUMANN_CLASS NEUMANN_WIND NEUMANN_PRES MLC_LAT MLC_LON MLC_CLASS MLC_WIND MLC_PRES USA_GUST BOM_GUST BOM_GUST_PER REUNION_GUST REUNION_GUST_PER USA_SEAHGT USA_SEARAD_NE USA_SEARAD_SE USA_SEARAD_SW USA_SEARAD_NW STORM_SPEED STORM_DIR
1992249N12229 1992 83 EP MM INIKI 1992-09-05 06:00:00 NR 11.7000 -131.500 main 2481 2481 O_____________ jtwc_ep EP181992 11.7000 -131.500 25 -1 15 270
1992249N12229 1992 83 EP MM INIKI 1992-09-05 09:00:00 NR 11.6979 -132.248 main 2532 2490 P_____________ EP181992 11.6764 -132.472 25 -1 15 270
1992249N12229 1992 83 EP MM INIKI 1992-09-05 12:00:00 NR 11.7000 -133.000 main 2490 2420 O_____________ jtwc_ep EP181992 11.7000 -133.000 25 -1 15 270
1992249N12229 1992 83 EP MM INIKI 1992-09-05 15:00:00 NR 11.7074 -133.757 main 2410 2386 P_____________ EP181992 11.7986 -132.895 25 -1 10 274
1992249N12229 1992 83 EP MM INIKI 1992-09-05 18:00:00 TS 11.7667 -134.000 25 1010 hurdat_epa main 2386 2296 O_____________ hurdat_epa EP181992 11.9000 -133.000 TD 25 1010 -1 11 273
1992249N12229 1992 83 EP MM INIKI 1992-09-05 21:00:00 TS 11.7714 -134.916 main 2296 2197 P_____________ EP181992 11.9105 -134.353 TD 25 1010 -1 19 270
1992249N12229 1992 83 EP MM INIKI 1992-09-06 00:00:00 TS 11.7800 -135.900 25 1010 hurdat_epa main 2197 2129 O_____________ hurdat_epa EP181992 11.9000 -135.900 TD 25 1010 -1 17 272
1992249N12229 1992 83 EP MM INIKI 1992-09-06 03:00:00 TS 11.8249 -136.618 main 2129 2075 P_____________ EP181992 11.9412 -136.670 TD 25 1010 -1 12 274
1992249N12229 1992 83 EP MM INIKI 1992-09-06 06:00:00 TS 11.8667 -137.167 25 1010 hurdat_epa main 2065 2007 O_____________ hurdat_epa EP181992 12.0000 -137.200 TD 25 1010 -1 12 274
1992249N12229 1992 83 EP MM INIKI 1992-09-06 09:00:00 TS 11.9049 -137.807 main 2007 1949 P_____________ EP181992 12.0499 -137.850 TD 27 1009 -1 12 273
1992249N12229 1992 83 EP MM INIKI 1992-09-06 12:00:00 TS 11.9333 -138.433 30 1009 hurdat_epa main 1949 1892 O_____________ hurdat_epa EP181992 12.1000 -138.500 TD 30 1009 -1 12 272
1992249N12229 1992 83 EP MM INIKI 1992-09-06 15:00:00 TS 11.9382 -139.027 main 1892 1829 P_____________ EP181992 12.1498 -139.150 TD 30 1008 -1 12 271
1992249N12229 1992 83 EP MM INIKI 1992-09-06 18:00:00 TS 11.9538 -139.631 30 1008 hurdat_epa main 1829 1772 O_____________ hurdat_epa EP181992 12.2000 -139.800 TD 30 1008 -1 12 272
1992249N12229 1992 83 EP CP INIKI 1992-09-06 21:00:00 TS 11.9776 -140.259 main 1763 1716 P_____________ EP181992 12.2576 -140.502 TD 27 1008 -1 12 273
1992249N12229 1992 83 EP CP INIKI 1992-09-07 00:00:00 TS 12.0067 -140.807 25 1008 hurdat_epa main 1716 1679 O_____________ hurdat_epa EP181992 12.3000 -141.100 TD 25 1008 -1 9 274
1992249N12229 1992 83 EP CP INIKI 1992-09-07 03:00:00 TS 12.0391 -141.187 main 1679 1651 P_____________ EP181992 12.3147 -141.445 TD 25 1007 -1 7 274
1992249N12229 1992 83 EP CP INIKI 1992-09-07 06:00:00 TS 12.0500 -141.500 25 1007 hurdat_epa main 1645 1608 O_____________ hurdat_epa EP181992 12.3000 -141.700 TD 25 1007 -1 7 271
1992249N12229 1992 83 EP CP INIKI 1992-09-07 09:00:00 TS 12.0556 -141.889 main 1608 1572 P_____________ EP181992 12.2575 -142.050 TD 27 1006 -1 8 270
1992249N12229 1992 83 EP CP INIKI 1992-09-07 12:00:00 TS 12.0500 -142.300 30 1006 hurdat_epa main 1572 1551 O_____________ hurdat_epa EP181992 12.2000 -142.400 TD 30 1006 -1 8 268
1992249N12229 1992 83 EP CP INIKI 1992-09-07 15:00:00 TS 12.0304 -142.669 main 1542 1506 P_____________ EP181992 12.1496 -142.640 TD 30 1005 -1 8 266
1992249N12229 1992 83 EP CP INIKI 1992-09-07 18:00:00 TS 12.0000 -143.125 30 1004 hurdat_epa main 1506 1453 O_____________ hurdat_epa EP181992 12.1000 -143.000 TD 30 1004 -1 11 266
1992249N12229 1992 83 EP CP INIKI 1992-09-07 21:00:00 TS 11.9531 -143.762 main 1445 1392 P_____________ EP181992 12.0427 -143.683 TD 32 1003 -1 13 267
1992249N12229 1992 83 EP CP INIKI 1992-09-08 00:00:00 TS 11.9250 -144.500 35 1002 hurdat_epa main 1392 1333 O_____________ hurdat_epa EP181992 12.0000 -144.500 TS 35 1002 0 14 270
1992249N12229 1992 83 EP CP INIKI 1992-09-08 03:00:00 TS 11.9492 -145.241 main 1333 1261 P_____________ EP181992 11.9848 -145.250 TS 37 1001 0 15 273
1992249N12229 1992 83 EP CP INIKI 1992-09-08 06:00:00 TS 12.0000 -146.000 40 1000 hurdat_epa main 1261 1206 O_____________ hurdat_epa EP181992 12.0000 -146.000 TS 40 1000 0 15 274
1992249N12229 1992 83 EP CP INIKI 1992-09-08 09:00:00 TS 12.0404 -146.750 main 1198 1137 P_____________ EP181992 12.0348 -146.750 TS 40 1000 0 15 274
1992249N12229 1992 83 EP CP INIKI 1992-09-08 12:00:00 TS 12.1000 -147.500 40 1000 hurdat_epa main 1137 1077 O_____________ hurdat_epa EP181992 12.1000 -147.500 TS 40 1000 0 15 276
1992249N12229 1992 83 EP CP INIKI 1992-09-08 15:00:00 TS 12.2000 -148.271 main 1070 1012 P_____________ EP181992 12.2000 -148.272 TS 45 998 0 15 278
1992249N12229 1992 83 EP CP INIKI 1992-09-08 18:00:00 TS 12.3000 -149.000 50 996 hurdat_epa main 1012 973 O_____________ hurdat_epa EP181992 12.3000 -149.000 TS 50 996 0 13 276
1992249N12229 1992 83 EP CP INIKI 1992-09-08 21:00:00 TS 12.3421 -149.622 main 973 927 P_____________ EP181992 12.3421 -149.608 TS 55 996 0 12 275
1992249N12229 1992 83 EP CP INIKI 1992-09-09 00:00:00 TS 12.4000 -150.225 60 996 hurdat_epa main 927 878 O_____________ hurdat_epa EP181992 12.4000 -150.200 TS 60 996 0 13 279
1992249N12229 1992 83 EP CP INIKI 1992-09-09 03:00:00 TS 12.5350 -150.907 main 878 820 P_____________ EP181992 12.5350 -150.892 TS 62 994 0 14 283
1992249N12229 1992 83 EP CP INIKI 1992-09-09 06:00:00 TS 12.7000 -151.600 65 992 hurdat_epa main 820 778 O_____________ hurdat_epa EP181992 12.7000 -151.600 HU 65 992 1 13 283
1992249N12229 1992 83 EP CP INIKI 1992-09-09 09:00:00 TS 12.8423 -152.250 main 773 725 P_____________ EP181992 12.8422 -152.250 HU 65 992 1 13 283
1992249N12229 1992 83 EP CP INIKI 1992-09-09 12:00:00 TS 13.0000 -152.900 65 992 hurdat_epa main 725 676 O_____________ hurdat_epa EP181992 13.0000 -152.900 HU 65 992 1 14 285
1992249N12229 1992 83 EP CP INIKI 1992-09-09 15:00:00 TS 13.1924 -153.593 main 676 636 P_____________ EP181992 13.1925 -153.607 HU 72 988 1 14 287
1992249N12229 1992 83 EP CP INIKI 1992-09-09 18:00:00 TS 13.4000 -154.275 80 984 hurdat_epa main 633 599 O_____________ hurdat_epa EP181992 13.4000 -154.300 HU 80 984 1 13 288
1992249N12229 1992 83 EP CP INIKI 1992-09-09 21:00:00 TS 13.5922 -154.890 main 599 571 P_____________ EP181992 13.5921 -154.900 HU 82 982 1 13 289
1992249N12229 1992 83 EP CP INIKI 1992-09-10 00:00:00 TS 13.8000 -155.500 85 980 hurdat_epa main 571 548 O_____________ hurdat_epa EP181992 13.8000 -155.500 HU 85 980 2 14 290
1992249N12229 1992 83 EP CP INIKI 1992-09-10 03:00:00 TS 14.0501 -156.197 main 539 527 P_____________ EP181992 14.0502 -156.222 HU 87 970 2 14 291
1992249N12229 1992 83 EP CP INIKI 1992-09-10 06:00:00 TS 14.3000 -156.850 90 960 hurdat_epa main 530 521 O_____________ hurdat_epa EP181992 14.3000 -156.900 HU 90 960 2 12 292
1992249N12229 1992 83 EP CP INIKI 1992-09-10 09:00:00 TS 14.4997 -157.352 main 524 515 P_____________ EP181992 14.4997 -157.395 HU 95 960 2 10 294
1992249N12229 1992 83 EP CP INIKI 1992-09-10 12:00:00 TS 14.7000 -157.775 100 960 hurdat_epa main 520 515 O_____________ hurdat_epa EP181992 14.7000 -157.800 HU 100 960 3 9 297
1992249N12229 1992 83 EP CP INIKI 1992-09-10 15:00:00 TS 14.9274 -158.204 main 520 509 P_____________ EP181992 14.9274 -158.215 HU 100 955 3 9 302
1992249N12229 1992 83 EP CP INIKI 1992-09-10 18:00:00 TS 15.2000 -158.600 100 951 hurdat_epa main 516 510 O_____________ hurdat_epa EP181992 15.2000 -158.600 HU 100 951 3 10 309
1992249N12229 1992 83 EP CP INIKI 1992-09-10 21:00:00 TS 15.5200 -158.974 main 517 508 P_____________ EP181992 15.5200 -158.973 HU 105 949 3 10 316
1992249N12229 1992 83 EP CP INIKI 1992-09-11 00:00:00 TS 15.9000 -159.300 110 948 hurdat_epa main 508 493 O_____________ hurdat_epa EP181992 15.9000 -159.300 HU 110 948 3 10 324
1992249N12229 1992 83 EP CP INIKI 1992-09-11 03:00:00 TS 16.2993 -159.573 main 501 483 P_____________ EP181992 16.2974 -159.573 HU 112 947 3 10 332
1992249N12229 1992 83 EP CP INIKI 1992-09-11 06:00:00 TS 16.8000 -159.800 115 947 hurdat_epa main 486 472 O_____________ hurdat_epa EP181992 16.8000 -159.800 HU 115 947 4 13 338
1992249N12229 1992 83 EP CP INIKI 1992-09-11 09:00:00 TS 17.4538 -160.052 main 473 420 P_____________ EP181992 17.4700 -160.052 HU 117 943 4 14 344
1992249N12229 1992 83 EP CP INIKI 1992-09-11 12:00:00 TS 18.1750 -160.200 120 939 hurdat_epa main 410 355 O_____________ hurdat_epa EP181992 18.2000 -160.200 HU 120 939 4 14 356
1992249N12229 1992 83 EP CP INIKI 1992-09-11 15:00:00 TS 18.8050 -160.145 main 349 275 P_____________ EP181992 18.8050 -160.145 HU 122 938 4 14 8
1992249N12229 1992 83 EP CP INIKI 1992-09-11 18:00:00 TS 19.5250 -160.000 125 938 hurdat_epa main 275 175 O_____________ hurdat_epa EP181992 19.5000 -160.000 HU 125 938 4 17 8
1992249N12229 1992 83 EP CP INIKI 1992-09-11 21:00:00 TS 20.4488 -159.915 main 175 67 P_____________ EP181992 20.4325 -159.915 HU 120 941 4 20 5
1992249N12229 1992 83 EP CP INIKI 1992-09-12 00:00:00 TS 21.5000 -159.800 115 945 hurdat_epa main 55 0 O_____________ hurdat_epa EP181992 21.5000 -159.800 HU 115 945 4 22 7
1992249N12229 1992 83 EP CP INIKI 1992-09-12 03:00:00 TS 22.5981 -159.615 main 55 55 P_____________ EP181992 22.6000 -159.615 HU 107 952 3 22 10
1992249N12229 1992 83 EP CP INIKI 1992-09-12 06:00:00 TS 23.7000 -159.400 100 959 hurdat_epa main 178 178 O_____________ hurdat_epa EP181992 23.7000 -159.400 HU 100 959 3 21 11
1992249N12229 1992 83 EP CP INIKI 1992-09-12 09:00:00 TS 24.6869 -159.178 main 290 290 P_____________ EP181992 24.6850 -159.178 HU 90 969 2 20 10
1992249N12229 1992 83 EP CP INIKI 1992-09-12 12:00:00 TS 25.7000 -159.000 80 980 hurdat_epa main 403 403 O_____________ hurdat_epa EP181992 25.7000 -159.000 HU 80 980 1 22 6
1992249N12229 1992 83 EP CP INIKI 1992-09-12 15:00:00 TS 26.8631 -158.927 main 537 537 P_____________ EP181992 26.8775 -158.927 HU 80 980 1 24 2
1992249N12229 1992 83 EP CP INIKI 1992-09-12 18:00:00 TS 28.0750 -158.900 80 980 hurdat_epa main 671 671 O_____________ hurdat_epa EP181992 28.1000 -158.900 HU 80 980 1 24 2
1992249N12229 1992 83 EP CP INIKI 1992-09-12 21:00:00 TS 29.2206 -158.850 main 794 794 P_____________ EP181992 29.2350 -158.850 HU 72 985 1 23 2
1992249N12229 1992 83 EP CP INIKI 1992-09-13 00:00:00 TS 30.4000 -158.800 65 990 hurdat_epa main 928 928 O_____________ hurdat_epa EP181992 30.4000 -158.800 HU 65 990 1 25 2
1992249N12229 1992 83 EP CP INIKI 1992-09-13 03:00:00 TS 31.7243 -158.757 main 1073 1073 P_____________ EP181992 31.7225 -158.757 HU 65 990 1 26 2
1992249N12229 1992 83 EP CP INIKI 1992-09-13 06:00:00 TS 33.0000 -158.700 65 990 hurdat_epa main 1218 1218 O_____________ hurdat_epa EP181992 33.0000 -158.700 HU 65 990 1 24 3
1992249N12229 1992 83 EP CP INIKI 1992-09-13 09:00:00 TS 34.0673 -158.622 main 1341 1341 P_____________ EP181992 34.0673 -158.622 HU 57 995 0 20 5
1992249N12229 1992 83 EP CP INIKI 1992-09-13 12:00:00 TS 35.0000 -158.500 50 1000 hurdat_epa main 1442 1442 O_____________ hurdat_epa EP181992 35.0000 -158.500 TS 50 1000 0 18 8
1992249N12229 1992 83 EP CP INIKI 1992-09-13 15:00:00 TS 35.8652 -158.319 main 1543 1543 P_____________ EP181992 35.8652 -158.319 TS 45 1001 0 17 11
1992249N12229 1992 83 EP CP INIKI 1992-09-13 18:00:00 TS 36.7000 -158.100 40 1002 hurdat_epa main 1633 O_____________ hurdat_epa EP181992 36.7000 -158.100 TS 40 1002 0 17 12

About IBTrACS Database

This database is a web-friendly format of International Best Track Archive for Climate Stewardship (IBTrACS), a global best track data archive curated by NOAA dating back to 1842.

Updated: 2021-10-27